sensor_id;sensor_type;location;lat;lon;timestamp;pressure;altitude;pressure_sealevel;temperature;humidity
2000;BME280;1001;48.87406500;9.59633600;2023-02-02T00:00:28;95553.81;;;3.98;100.00
2000;BME280;1001;48.87406500;9.59633600;2023-02-02T00:02:55;95547.69;;;3.99;100.00
2000;BME280;1001;48.87406500;9.59633600;2023-02-02T00:05:21;95539.03;;;3.92;100.00
2000;BME280;1001;48.87406500;9.59633600;2023-02-02T00:07:48;95526.53;;;3.81;100.00
2000;BME280;1001;48.87406500;9.59633600;2023-02-02T00:10:16;95530.63;;;3.75;100.00
2000;BME280;1001;48.87406500;9.59633600;2023-02-02T00:12:42;95527.75;;;3.70;100.00
2000;BME280;1001;48.87406500;9.59633600;2023-02-02T00:15:09;95541.84;;;3.68;100.00
2000;BME280;1001;48.87406500;9.59633600;2023-02-02T00:17:37;95536.13;;;3.72;100.00
2000;BME280;1001;48.87406500;9.59633600;2023-02-02T00:20:04;95537.19;;;3.63;100.00
2000;BME280;1001;48.87406500;9.59633600;2023-02-02T00:22:31;95533.00;;;3.62;100.00
2000;BME280;1001;48.87406500;9.59633600;2023-02-02T00:24:58;95536.84;;;3.66;100.00
2000;BME280;1001;48.87406500;9.59633600;2023-02-02T00:27:24;95533.34;;;3.59;100.00
2000;BME280;1001;48.87406500;9.59633600;2023-02-02T00:29:51;95533.69;;;3.56;100.00
2000;BME280;1001;48.87406500;9.59633600;2023-02-02T00:32:18;95538.06;;;3.56;100.00
2000;BME280;1001;48.87406500;9.59633600;2023-02-02T00:34:46;95540.31;;;3.59;100.00
2000;BME280;1001;48.87406500;9.59633600;2023-02-02T00:37:13;95542.59;;;3.54;100.00
2000;BME280;1001;48.87406500;9.59633600;2023-02-02T00:39:39;95538.41;;;3.53;100.00
2000;BME280;1001;48.87406500;9.59633600;2023-02-02T00:42:08;95542.59;;;3.54;100.00
2000;BME280;1001;48.87406500;9.59633600;2023-02-02T00:44:35;95531.47;;;3.53;100.00
2000;BME280;1001;48.87406500;9.59633600;2023-02-02T00:47:19;95538.78;;;3.50;100.00
2000;BME280;1001;48.87406500;9.59633600;2023-02-02T00:49:48;95537.97;;;3.49;100.00
2000;BME280;1001;48.87406500;9.59633600;2023-02-02T00:52:14;95531.00;;;3.50;100.00
2000;BME280;1001;48.87406500;9.59633600;2023-02-02T00:54:41;95532.78;;;3.49;100.00
2000;BME280;1001;48.87406500;9.59633600;2023-02-02T00:57:09;95532.16;;;3.47;100.00
2000;BME280;1001;48.87406500;9.59633600;2023-02-02T00:59:37;95532.31;;;3.45;100.00
2000;BME280;1001;48.87406500;9.59633600;2023-02-02T01:02:04;95527.97;;;3.46;100.00
2000;BME280;1001;48.87406500;9.59633600;2023-02-02T01:04:31;95538.31;;;3.46;100.00
2000;BME280;1001;48.87406500;9.59633600;2023-02-02T01:06:59;95522.16;;;3.44;100.00
2000;BME280;1001;48.87406500;9.59633600;2023-02-02T01:09:25;95523.50;;;3.40;100.00
2000;BME280;1001;48.87406500;9.59633600;2023-02-02T01:11:52;95527.53;;;3.42;100.00
2000;BME280;1001;48.87406500;9.59633600;2023-02-02T01:14:18;95528.78;;;3.47;100.00
2000;BME280;1001;48.87406500;9.59633600;2023-02-02T01:16:45;95533.66;;;3.41;100.00
2000;BME280;1001;48.87406500;9.59633600;2023-02-02T01:19:12;95529.91;;;3.44;100.00
2000;BME280;1001;48.87406500;9.59633600;2023-02-02T01:21:38;95529.13;;;3.43;100.00
2000;BME280;1001;48.87406500;9.59633600;2023-02-02T01:24:07;95530.09;;;3.42;100.00
2000;BME280;1001;48.87406500;9.59633600;2023-02-02T01:26:33;95527.34;;;3.44;100.00
2000;BME280;1001;48.87406500;9.59633600;2023-02-02T01:29:00;95531.16;;;3.48;100.00
2000;BME280;1001;48.87406500;9.59633600;2023-02-02T01:31:26;95529.88;;;3.52;100.00
2000;BME280;1001;48.87406500;9.59633600;2023-02-02T01:33:53;95529.50;;;3.55;100.00
2000;BME280;1001;48.87406500;9.59633600;2023-02-02T01:36:21;95528.97;;;3.60;100.00
2000;BME280;1001;48.87406500;9.59633600;2023-02-02T01:38:49;95535.75;;;3.61;100.00
2000;BME280;1001;48.87406500;9.59633600;2023-02-02T01:41:19;95527.66;;;3.64;100.00
2000;BME280;1001;48.87406500;9.59633600;2023-02-02T01:43:55;95527.75;;;3.70;100.00
2000;BME280;1001;48.87406500;9.59633600;2023-02-02T01:46:24;95527.22;;;3.75;100.00
2000;BME280;1001;48.87406500;9.59633600;2023-02-02T01:48:54;95535.44;;;3.78;100.00
2000;BME280;1001;48.87406500;9.59633600;2023-02-02T01:51:24;95535.06;;;3.81;100.00
2000;BME280;1001;48.87406500;9.59633600;2023-02-02T01:53:53;95505.47;;;3.84;100.00
2000;BME280;1001;48.87406500;9.59633600;2023-02-02T01:56:27;95529.03;;;3.89;100.00
2000;BME280;1001;48.87406500;9.59633600;2023-02-02T01:58:56;95520.44;;;3.88;100.00
2000;BME280;1001;48.87406500;9.59633600;2023-02-02T02:01:23;95521.44;;;3.87;100.00
2000;BME280;1001;48.87406500;9.59633600;2023-02-02T02:03:50;95521.09;;;3.90;100.00
2000;BME280;1001;48.87406500;9.59633600;2023-02-02T02:06:18;95528.34;;;3.95;100.00
2000;BME280;1001;48.87406500;9.59633600;2023-02-02T02:08:49;95519.91;;;3.93;100.00
2000;BME280;1001;48.87406500;9.59633600;2023-02-02T02:11:17;95517.34;;;3.93;100.00
2000;BME280;1001;48.87406500;9.59633600;2023-02-02T02:13:45;95526.38;;;3.97;100.00
2000;BME280;1001;48.87406500;9.59633600;2023-02-02T02:16:37;95517.19;;;3.94;100.00
2000;BME280;1001;48.87406500;9.59633600;2023-02-02T02:19:18;95521.72;;;3.92;100.00
2000;BME280;1001;48.87406500;9.59633600;2023-02-02T02:21:55;95523.31;;;3.93;100.00
2000;BME280;1001;48.87406500;9.59633600;2023-02-02T02:25:01;95522.78;;;3.98;100.00
2000;BME280;1001;48.87406500;9.59633600;2023-02-02T02:28:17;95516.97;;;3.96;100.00
2000;BME280;1001;48.87406500;9.59633600;2023-02-02T02:31:24;95512.44;;;3.98;100.00
2000;BME280;1001;48.87406500;9.59633600;2023-02-02T02:33:59;95506.91;;;4.01;100.00
2000;BME280;1001;48.87406500;9.59633600;2023-02-02T02:36:37;95516.09;;;4.03;100.00
2000;BME280;1001;48.87406500;9.59633600;2023-02-02T02:39:12;95515.13;;;4.04;100.00
2000;BME280;1001;48.87406500;9.59633600;2023-02-02T02:41:48;95496.84;;;4.06;100.00
2000;BME280;1001;48.87406500;9.59633600;2023-02-02T02:44:16;95507.00;;;4.07;100.00
2000;BME280;1001;48.87406500;9.59633600;2023-02-02T02:46:44;95499.84;;;4.09;100.00
2000;BME280;1001;48.87406500;9.59633600;2023-02-02T02:49:13;95521.19;;;4.11;100.00
2000;BME280;1001;48.87406500;9.59633600;2023-02-02T02:51:43;95522.78;;;4.12;100.00
2000;BME280;1001;48.87406500;9.59633600;2023-02-02T02:54:11;95510.84;;;4.11;100.00
2000;BME280;1001;48.87406500;9.59633600;2023-02-02T02:56:49;95525.38;;;4.12;100.00
2000;BME280;1001;48.87406500;9.59633600;2023-02-02T02:59:28;95531.38;;;4.13;100.00
2000;BME280;1001;48.87406500;9.59633600;2023-02-02T03:02:06;95523.59;;;4.13;100.00
2000;BME280;1001;48.87406500;9.59633600;2023-02-02T03:04:42;95526.63;;;4.17;100.00
2000;BME280;1001;48.87406500;9.59633600;2023-02-02T03:07:17;95520.19;;;4.12;100.00
2000;BME280;1001;48.87406500;9.59633600;2023-02-02T03:09:47;95518.78;;;4.10;100.00
2000;BME280;1001;48.87406500;9.59633600;2023-02-02T03:12:16;95515.84;;;4.13;100.00
2000;BME280;1001;48.87406500;9.59633600;2023-02-02T03:14:43;95522.97;;;4.11;100.00
2000;BME280;1001;48.87406500;9.59633600;2023-02-02T03:17:10;95525.22;;;4.14;100.00
2000;BME280;1001;48.87406500;9.59633600;2023-02-02T03:19:38;95531.97;;;4.15;100.00
2000;BME280;1001;48.87406500;9.59633600;2023-02-02T03:22:04;95521.44;;;4.17;100.00
2000;BME280;1001;48.87406500;9.59633600;2023-02-02T03:24:31;95517.00;;;4.10;100.00
2000;BME280;1001;48.87406500;9.59633600;2023-02-02T03:26:57;95517.97;;;4.09;100.00
2000;BME280;1001;48.87406500;9.59633600;2023-02-02T03:29:24;95525.03;;;4.16;100.00
2000;BME280;1001;48.87406500;9.59633600;2023-02-02T03:31:51;95514.88;;;4.14;100.00
2000;BME280;1001;48.87406500;9.59633600;2023-02-02T03:34:17;95526.53;;;4.10;100.00
2000;BME280;1001;48.87406500;9.59633600;2023-02-02T03:36:45;95537.50;;;4.12;100.00
2000;BME280;1001;48.87406500;9.59633600;2023-02-02T03:39:12;95544.94;;;4.15;100.00
2000;BME280;1001;48.87406500;9.59633600;2023-02-02T03:41:38;95535.81;;;4.19;100.00
2000;BME280;1001;48.87406500;9.59633600;2023-02-02T03:44:05;95536.81;;;4.18;100.00
2000;BME280;1001;48.87406500;9.59633600;2023-02-02T03:46:31;95543.41;;;4.21;100.00
2000;BME280;1001;48.87406500;9.59633600;2023-02-02T03:48:58;95532.25;;;4.20;100.00
2000;BME280;1001;48.87406500;9.59633600;2023-02-02T03:51:24;95529.66;;;4.20;100.00
2000;BME280;1001;48.87406500;9.59633600;2023-02-02T03:53:52;95541.63;;;4.21;100.00
2000;BME280;1001;48.87406500;9.59633600;2023-02-02T03:56:19;95542.88;;;4.25;100.00
2000;BME280;1001;48.87406500;9.59633600;2023-02-02T03:58:45;95543.03;;;4.24;100.00
2000;BME280;1001;48.87406500;9.59633600;2023-02-02T04:01:12;95548.06;;;4.25;100.00
2000;BME280;1001;48.87406500;9.59633600;2023-02-02T04:03:39;95549.84;;;4.25;100.00
2000;BME280;1001;48.87406500;9.59633600;2023-02-02T04:06:06;95545.28;;;4.27;100.00
2000;BME280;1001;48.87406500;9.59633600;2023-02-02T04:08:33;95556.44;;;4.27;100.00
2000;BME280;1001;48.87406500;9.59633600;2023-02-02T04:11:01;95556.25;;;4.29;100.00
2000;BME280;1001;48.87406500;9.59633600;2023-02-02T04:13:27;95547.06;;;4.26;100.00
2000;BME280;1001;48.87406500;9.59633600;2023-02-02T04:15:57;95562.03;;;4.31;100.00
2000;BME280;1001;48.87406500;9.59633600;2023-02-02T04:18:24;95569.81;;;4.31;100.00
2000;BME280;1001;48.87406500;9.59633600;2023-02-02T04:20:55;95558.06;;;4.28;100.00
2000;BME280;1001;48.87406500;9.59633600;2023-02-02T04:23:21;95565.44;;;4.31;100.00
2000;BME280;1001;48.87406500;9.59633600;2023-02-02T04:25:48;95561.88;;;4.32;100.00
2000;BME280;1001;48.87406500;9.59633600;2023-02-02T04:28:16;95569.66;;;4.32;100.00
2000;BME280;1001;48.87406500;9.59633600;2023-02-02T04:30:42;95560.88;;;4.33;100.00
2000;BME280;1001;48.87406500;9.59633600;2023-02-02T04:33:09;95570.91;;;4.36;100.00
2000;BME280;1001;48.87406500;9.59633600;2023-02-02T04:35:36;95568.50;;;4.35;100.00
2000;BME280;1001;48.87406500;9.59633600;2023-02-02T04:38:02;95576.69;;;4.38;100.00
2000;BME280;1001;48.87406500;9.59633600;2023-02-02T04:40:29;95579.81;;;4.34;100.00
2000;BME280;1001;48.87406500;9.59633600;2023-02-02T04:42:56;95586.00;;;4.33;100.00
2000;BME280;1001;48.87406500;9.59633600;2023-02-02T04:45:24;95585.81;;;4.34;100.00
2000;BME280;1001;48.87406500;9.59633600;2023-02-02T04:47:51;95572.06;;;4.34;100.00
2000;BME280;1001;48.87406500;9.59633600;2023-02-02T04:50:17;95585.47;;;4.37;100.00
2000;BME280;1001;48.87406500;9.59633600;2023-02-02T04:52:44;95582.88;;;4.37;100.00
2000;BME280;1001;48.87406500;9.59633600;2023-02-02T04:55:10;95574.28;;;4.37;100.00
2000;BME280;1001;48.87406500;9.59633600;2023-02-02T04:57:37;95586.63;;;4.35;100.00
2000;BME280;1001;48.87406500;9.59633600;2023-02-02T05:00:04;95578.94;;;4.41;100.00
2000;BME280;1001;48.87406500;9.59633600;2023-02-02T05:02:35;95589.47;;;4.40;100.00
2000;BME280;1001;48.87406500;9.59633600;2023-02-02T05:05:02;95599.84;;;4.40;100.00
2000;BME280;1001;48.87406500;9.59633600;2023-02-02T05:07:29;95608.38;;;4.40;100.00
2000;BME280;1001;48.87406500;9.59633600;2023-02-02T05:09:56;95602.22;;;4.41;100.00
2000;BME280;1001;48.87406500;9.59633600;2023-02-02T05:12:23;95599.84;;;4.40;100.00
2000;BME280;1001;48.87406500;9.59633600;2023-02-02T05:14:49;95593.31;;;4.44;100.00
2000;BME280;1001;48.87406500;9.59633600;2023-02-02T05:17:16;95605.44;;;4.43;100.00
2000;BME280;1001;48.87406500;9.59633600;2023-02-02T05:19:44;95612.25;;;4.44;100.00
2000;BME280;1001;48.87406500;9.59633600;2023-02-02T05:22:10;95601.06;;;4.44;100.00
2000;BME280;1001;48.87406500;9.59633600;2023-02-02T05:24:37;95585.34;;;4.45;100.00
2000;BME280;1001;48.87406500;9.59633600;2023-02-02T05:27:04;95604.28;;;4.46;100.00
2000;BME280;1001;48.87406500;9.59633600;2023-02-02T05:29:30;95605.28;;;4.45;100.00
2000;BME280;1001;48.87406500;9.59633600;2023-02-02T05:31:57;95589.56;;;4.46;100.00
2000;BME280;1001;48.87406500;9.59633600;2023-02-02T05:34:23;95610.69;;;4.50;100.00
2000;BME280;1001;48.87406500;9.59633600;2023-02-02T05:36:52;95591.00;;;4.49;100.00
2000;BME280;1001;48.87406500;9.59633600;2023-02-02T05:39:18;95621.88;;;4.50;100.00
2000;BME280;1001;48.87406500;9.59633600;2023-02-02T05:41:45;95603.75;;;4.50;100.00
2000;BME280;1001;48.87406500;9.59633600;2023-02-02T05:44:12;95629.63;;;4.50;100.00
2000;BME280;1001;48.87406500;9.59633600;2023-02-02T05:46:39;95624.66;;;4.49;100.00
2000;BME280;1001;48.87406500;9.59633600;2023-02-02T05:49:07;95631.06;;;4.53;100.00
2000;BME280;1001;48.87406500;9.59633600;2023-02-02T05:51:39;95613.47;;;4.48;100.00
2000;BME280;1001;48.87406500;9.59633600;2023-02-02T05:54:09;95622.50;;;4.52;100.00
2000;BME280;1001;48.87406500;9.59633600;2023-02-02T05:56:35;95633.66;;;4.53;100.00
2000;BME280;1001;48.87406500;9.59633600;2023-02-02T05:59:02;95629.28;;;4.53;100.00
2000;BME280;1001;48.87406500;9.59633600;2023-02-02T06:01:32;95625.28;;;4.51;100.00
2000;BME280;1001;48.87406500;9.59633600;2023-02-02T06:03:58;95617.50;;;4.51;100.00
2000;BME280;1001;48.87406500;9.59633600;2023-02-02T06:06:25;95630.25;;;4.52;100.00
2000;BME280;1001;48.87406500;9.59633600;2023-02-02T06:08:52;95637.75;;;4.47;100.00
2000;BME280;1001;48.87406500;9.59633600;2023-02-02T06:11:20;95645.03;;;4.52;100.00
2000;BME280;1001;48.87406500;9.59633600;2023-02-02T06:13:46;95648.84;;;4.56;100.00
2000;BME280;1001;48.87406500;9.59633600;2023-02-02T06:16:13;95644.63;;;4.55;100.00
2000;BME280;1001;48.87406500;9.59633600;2023-02-02T06:18:40;95645.03;;;4.52;100.00
2000;BME280;1001;48.87406500;9.59633600;2023-02-02T06:21:06;95649.72;;;4.48;100.00
2000;BME280;1001;48.87406500;9.59633600;2023-02-02T06:23:33;95645.53;;;4.47;100.00
2000;BME280;1001;48.87406500;9.59633600;2023-02-02T06:26:00;95647.34;;;4.47;100.00
2000;BME280;1001;48.87406500;9.59633600;2023-02-02T06:28:29;95649.31;;;4.45;100.00
2000;BME280;1001;48.87406500;9.59633600;2023-02-02T06:30:55;95666.88;;;4.49;100.00
2000;BME280;1001;48.87406500;9.59633600;2023-02-02T06:33:22;95662.50;;;4.50;100.00
2000;BME280;1001;48.87406500;9.59633600;2023-02-02T06:35:48;95666.44;;;4.46;100.00
2000;BME280;1001;48.87406500;9.59633600;2023-02-02T06:38:15;95655.88;;;4.47;100.00
2000;BME280;1001;48.87406500;9.59633600;2023-02-02T06:40:43;95648.13;;;4.47;100.00
2000;BME280;1001;48.87406500;9.59633600;2023-02-02T06:43:09;95653.75;;;4.51;100.00
2000;BME280;1001;48.87406500;9.59633600;2023-02-02T06:45:40;95662.25;;;4.45;100.00
2000;BME280;1001;48.87406500;9.59633600;2023-02-02T06:48:07;95663.22;;;4.44;100.00
2000;BME280;1001;48.87406500;9.59633600;2023-02-02T06:50:35;95658.84;;;4.44;100.00
2000;BME280;1001;48.87406500;9.59633600;2023-02-02T06:53:03;95654.81;;;4.42;100.00
2000;BME280;1001;48.87406500;9.59633600;2023-02-02T06:55:29;95674.00;;;4.47;100.00
2000;BME280;1001;48.87406500;9.59633600;2023-02-02T06:57:56;95675.19;;;4.45;100.00
2000;BME280;1001;48.87406500;9.59633600;2023-02-02T07:00:23;95670.97;;;4.44;100.00
2000;BME280;1001;48.87406500;9.59633600;2023-02-02T07:02:52;95668.38;;;4.44;100.00
2000;BME280;1001;48.87406500;9.59633600;2023-02-02T07:05:18;95670.16;;;4.43;100.00
2000;BME280;1001;48.87406500;9.59633600;2023-02-02T07:07:48;95664.84;;;4.45;100.00
2000;BME280;1001;48.87406500;9.59633600;2023-02-02T07:10:15;95668.03;;;4.47;100.00
2000;BME280;1001;48.87406500;9.59633600;2023-02-02T07:12:43;95666.88;;;4.49;100.00
2000;BME280;1001;48.87406500;9.59633600;2023-02-02T07:15:10;95675.81;;;4.47;100.00
2000;BME280;1001;48.87406500;9.59633600;2023-02-02T07:17:36;95675.97;;;4.45;100.00
2000;BME280;1001;48.87406500;9.59633600;2023-02-02T07:20:06;95682.78;;;4.46;100.00
2000;BME280;1001;48.87406500;9.59633600;2023-02-02T07:22:32;95690.81;;;4.51;100.00
2000;BME280;1001;48.87406500;9.59633600;2023-02-02T07:24:59;95681.44;;;4.50;100.00
2000;BME280;1001;48.87406500;9.59633600;2023-02-02T07:27:25;95680.19;;;4.46;100.00
2000;BME280;1001;48.87406500;9.59633600;2023-02-02T07:29:52;95682.16;;;4.44;100.00
2000;BME280;1001;48.87406500;9.59633600;2023-02-02T07:32:18;95681.53;;;4.42;100.00
2000;BME280;1001;48.87406500;9.59633600;2023-02-02T07:34:45;95684.75;;;4.44;100.00
2000;BME280;1001;48.87406500;9.59633600;2023-02-02T07:37:13;95685.16;;;4.48;100.00
2000;BME280;1001;48.87406500;9.59633600;2023-02-02T07:39:39;95679.56;;;4.44;100.00
2000;BME280;1001;48.87406500;9.59633600;2023-02-02T07:42:09;95691.50;;;4.45;100.00
2000;BME280;1001;48.87406500;9.59633600;2023-02-02T07:44:36;95702.47;;;4.47;100.00
2000;BME280;1001;48.87406500;9.59633600;2023-02-02T07:47:02;95695.00;;;4.52;100.00
2000;BME280;1001;48.87406500;9.59633600;2023-02-02T07:49:29;95694.56;;;4.49;100.00
2000;BME280;1001;48.87406500;9.59633600;2023-02-02T07:51:56;95694.03;;;4.53;100.00
2000;BME280;1001;48.87406500;9.59633600;2023-02-02T07:54:24;95688.22;;;4.51;100.00
2000;BME280;1001;48.87406500;9.59633600;2023-02-02T07:56:50;95688.56;;;4.48;100.00
2000;BME280;1001;48.87406500;9.59633600;2023-02-02T07:59:17;95693.03;;;4.54;100.00
2000;BME280;1001;48.87406500;9.59633600;2023-02-02T08:01:43;95685.63;;;4.51;100.00
2000;BME280;1001;48.87406500;9.59633600;2023-02-02T08:04:10;95684.63;;;4.52;100.00
2000;BME280;1001;48.87406500;9.59633600;2023-02-02T08:06:38;95681.09;;;4.53;100.00
2000;BME280;1001;48.87406500;9.59633600;2023-02-02T08:09:07;95679.31;;;4.54;100.00
2000;BME280;1001;48.87406500;9.59633600;2023-02-02T08:11:35;95673.75;;;4.57;100.00
2000;BME280;1001;48.87406500;9.59633600;2023-02-02T08:14:03;95675.72;;;4.55;100.00
2000;BME280;1001;48.87406500;9.59633600;2023-02-02T08:16:31;95691.53;;;4.60;100.00
2000;BME280;1001;48.87406500;9.59633600;2023-02-02T08:18:58;95692.88;;;4.56;100.00
2000;BME280;1001;48.87406500;9.59633600;2023-02-02T08:21:25;95694.94;;;4.60;100.00
2000;BME280;1001;48.87406500;9.59633600;2023-02-02T08:23:52;95703.03;;;4.57;100.00
2000;BME280;1001;48.87406500;9.59633600;2023-02-02T08:26:21;95711.44;;;4.59;100.00
2000;BME280;1001;48.87406500;9.59633600;2023-02-02T08:28:51;95717.00;;;4.56;100.00
2000;BME280;1001;48.87406500;9.59633600;2023-02-02T08:31:19;95714.84;;;4.60;100.00
2000;BME280;1001;48.87406500;9.59633600;2023-02-02T08:33:46;95721.63;;;4.61;100.00
2000;BME280;1001;48.87406500;9.59633600;2023-02-02T08:36:15;95723.22;;;4.62;100.00
2000;BME280;1001;48.87406500;9.59633600;2023-02-02T08:38:42;95731.53;;;4.57;100.00
2000;BME280;1001;48.87406500;9.59633600;2023-02-02T08:41:10;95736.09;;;4.55;100.00
2000;BME280;1001;48.87406500;9.59633600;2023-02-02T08:43:38;95737.53;;;4.58;100.00
2000;BME280;1001;48.87406500;9.59633600;2023-02-02T08:46:07;95743.84;;;4.55;100.00
2000;BME280;1001;48.87406500;9.59633600;2023-02-02T08:48:34;95739.56;;;4.62;100.00
2000;BME280;1001;48.87406500;9.59633600;2023-02-02T08:51:01;95739.66;;;4.54;100.00
2000;BME280;1001;48.87406500;9.59633600;2023-02-02T08:53:28;95739.31;;;4.57;100.00
2000;BME280;1001;48.87406500;9.59633600;2023-02-02T08:55:58;95735.91;;;4.57;100.00
2000;BME280;1001;48.87406500;9.59633600;2023-02-02T08:58:25;95708.41;;;4.56;100.00
2000;BME280;1001;48.87406500;9.59633600;2023-02-02T09:00:52;95740.13;;;4.58;100.00
2000;BME280;1001;48.87406500;9.59633600;2023-02-02T09:03:20;95728.59;;;4.60;100.00
2000;BME280;1001;48.87406500;9.59633600;2023-02-02T09:05:46;95730.03;;;4.63;100.00
2000;BME280;1001;48.87406500;9.59633600;2023-02-02T09:08:13;95727.44;;;4.63;100.00
2000;BME280;1001;48.87406500;9.59633600;2023-02-02T09:10:39;95736.38;;;4.60;100.00
2000;BME280;1001;48.87406500;9.59633600;2023-02-02T09:13:06;95737.91;;;4.69;100.00
2000;BME280;1001;48.87406500;9.59633600;2023-02-02T09:15:32;95750.22;;;4.67;100.00
2000;BME280;1001;48.87406500;9.59633600;2023-02-02T09:17:59;95738.63;;;4.63;100.00
2000;BME280;1001;48.87406500;9.59633600;2023-02-02T09:20:27;95742.63;;;4.66;100.00
2000;BME280;1001;48.87406500;9.59633600;2023-02-02T09:22:54;95748.44;;;4.68;100.00
2000;BME280;1001;48.87406500;9.59633600;2023-02-02T09:25:21;95731.13;;;4.68;100.00
2000;BME280;1001;48.87406500;9.59633600;2023-02-02T09:27:49;95734.16;;;4.72;100.00
2000;BME280;1001;48.87406500;9.59633600;2023-02-02T09:30:16;95727.53;;;4.69;100.00
2000;BME280;1001;48.87406500;9.59633600;2023-02-02T09:32:43;95726.72;;;4.69;100.00
2000;BME280;1001;48.87406500;9.59633600;2023-02-02T09:35:10;95737.53;;;4.72;100.00
2000;BME280;1001;48.87406500;9.59633600;2023-02-02T09:37:38;95741.91;;;4.72;100.00
2000;BME280;1001;48.87406500;9.59633600;2023-02-02T09:40:05;95752.38;;;4.78;100.00
2000;BME280;1001;48.87406500;9.59633600;2023-02-02T09:42:43;95756.13;;;4.76;100.00
2000;BME280;1001;48.87406500;9.59633600;2023-02-02T09:45:18;95752.28;;;4.72;100.00
2000;BME280;1001;48.87406500;9.59633600;2023-02-02T09:47:54;95754.88;;;4.72;100.00
2000;BME280;1001;48.87406500;9.59633600;2023-02-02T09:50:45;95770.41;;;4.72;100.00
2000;BME280;1001;48.87406500;9.59633600;2023-02-02T09:53:18;95773.63;;;4.74;100.00
2000;BME280;1001;48.87406500;9.59633600;2023-02-02T09:55:49;95778.13;;;4.80;100.00
2000;BME280;1001;48.87406500;9.59633600;2023-02-02T09:58:18;95783.19;;;4.73;100.00
2000;BME280;1001;48.87406500;9.59633600;2023-02-02T10:00:52;95779.81;;;4.73;100.00
2000;BME280;1001;48.87406500;9.59633600;2023-02-02T10:03:22;95772.66;;;4.75;100.00
2000;BME280;1001;48.87406500;9.59633600;2023-02-02T10:05:54;95776.84;;;4.76;100.00
2000;BME280;1001;48.87406500;9.59633600;2023-02-02T10:08:32;95765.03;;;4.73;100.00
2000;BME280;1001;48.87406500;9.59633600;2023-02-02T10:11:03;95768.72;;;4.79;100.00
2000;BME280;1001;48.87406500;9.59633600;2023-02-02T10:13:36;95772.22;;;4.86;100.00
2000;BME280;1001;48.87406500;9.59633600;2023-02-02T10:16:13;95768.81;;;4.86;100.00
2000;BME280;1001;48.87406500;9.59633600;2023-02-02T10:18:45;95774.25;;;4.76;100.00
2000;BME280;1001;48.87406500;9.59633600;2023-02-02T10:21:21;95765.25;;;4.87;100.00
2000;BME280;1001;48.87406500;9.59633600;2023-02-02T10:23:51;95779.91;;;4.79;100.00
2000;BME280;1001;48.87406500;9.59633600;2023-02-02T10:26:20;95782.03;;;4.76;100.00
2000;BME280;1001;48.87406500;9.59633600;2023-02-02T10:29:01;95782.84;;;4.76;100.00
2000;BME280;1001;48.87406500;9.59633600;2023-02-02T10:31:37;95765.31;;;4.78;100.00
2000;BME280;1001;48.87406500;9.59633600;2023-02-02T10:34:12;95778.47;;;4.77;100.00
2000;BME280;1001;48.87406500;9.59633600;2023-02-02T10:36:46;95780.97;;;4.70;100.00
2000;BME280;1001;48.87406500;9.59633600;2023-02-02T10:39:23;95772.81;;;4.73;100.00
2000;BME280;1001;48.87406500;9.59633600;2023-02-02T10:41:58;95774.53;;;4.81;100.00
2000;BME280;1001;48.87406500;9.59633600;2023-02-02T10:44:36;95788.72;;;4.85;100.00
2000;BME280;1001;48.87406500;9.59633600;2023-02-02T10:47:10;95780.72;;;4.95;100.00
2000;BME280;1001;48.87406500;9.59633600;2023-02-02T10:49:39;95783.84;;;4.90;100.00
2000;BME280;1001;48.87406500;9.59633600;2023-02-02T10:52:14;95786.59;;;4.89;100.00
2000;BME280;1001;48.87406500;9.59633600;2023-02-02T10:54:49;95783.13;;;4.81;100.00
2000;BME280;1001;48.87406500;9.59633600;2023-02-02T10:57:30;95774.00;;;4.86;100.00
2000;BME280;1001;48.87406500;9.59633600;2023-02-02T11:00:03;95768.91;;;4.77;100.00
2000;BME280;1001;48.87406500;9.59633600;2023-02-02T11:02:31;95780.53;;;4.81;100.00
2000;BME280;1001;48.87406500;9.59633600;2023-02-02T11:04:58;95778.56;;;4.83;100.00
2000;BME280;1001;48.87406500;9.59633600;2023-02-02T11:07:42;95794.63;;;4.79;100.00
2000;BME280;1001;48.87406500;9.59633600;2023-02-02T11:10:10;95794.91;;;4.84;100.00
2000;BME280;1001;48.87406500;9.59633600;2023-02-02T11:12:41;95800.63;;;4.79;100.00
2000;BME280;1001;48.87406500;9.59633600;2023-02-02T11:15:23;95796.78;;;4.75;100.00
2000;BME280;1001;48.87406500;9.59633600;2023-02-02T11:17:50;95802.75;;;4.76;100.00
2000;BME280;1001;48.87406500;9.59633600;2023-02-02T11:20:22;95804.56;;;4.75;100.00
2000;BME280;1001;48.87406500;9.59633600;2023-02-02T11:22:59;95803.38;;;4.78;100.00
2000;BME280;1001;48.87406500;9.59633600;2023-02-02T11:25:30;95802.06;;;4.82;100.00
2000;BME280;1001;48.87406500;9.59633600;2023-02-02T11:27:59;95801.88;;;4.83;100.00
2000;BME280;1001;48.87406500;9.59633600;2023-02-02T11:30:30;95793.91;;;4.85;100.00
2000;BME280;1001;48.87406500;9.59633600;2023-02-02T11:32:58;95793.81;;;4.78;100.00
2000;BME280;1001;48.87406500;9.59633600;2023-02-02T11:35:25;95800.53;;;4.88;100.00
2000;BME280;1001;48.87406500;9.59633600;2023-02-02T11:37:57;95799.75;;;4.87;100.00
2000;BME280;1001;48.87406500;9.59633600;2023-02-02T11:40:35;95785.38;;;4.85;100.00
2000;BME280;1001;48.87406500;9.59633600;2023-02-02T11:43:05;95804.28;;;4.85;100.00
2000;BME280;1001;48.87406500;9.59633600;2023-02-02T11:45:41;95791.31;;;4.85;100.00
2000;BME280;1001;48.87406500;9.59633600;2023-02-02T11:48:13;95789.19;;;4.89;100.00
2000;BME280;1001;48.87406500;9.59633600;2023-02-02T11:50:44;95800.66;;;4.94;100.00
2000;BME280;1001;48.87406500;9.59633600;2023-02-02T11:53:20;95800.47;;;4.96;100.00